Time;durP1;ratioP1;P1;durP2;ratioP2;P2;SDS_P1;SDS_P2;PMS_P1;PMS_P2;Temp;Humidity;BMP_temperature;BMP_pressure;BME280_temperature;BME280_humidity;BME280_pressure;Samples;Min_cycle;Max_cycle;Signal;HPM_P1;HPM_P2
2022/10/10 00:01:22;;;;;;;;;16.75;11.50;;;;;13.88;100.00;101089.66;5058568;28;45483;-73
2022/10/10 00:03:47;;;;;;;;;16.00;11.25;;;;;13.89;100.00;101087.88;5057185;28;46878;-73
2022/10/10 00:06:14;;;;;;;;;14.67;12.00;;;;;13.89;100.00;101087.88;5040171;28;45497;-73
2022/10/10 00:08:40;;;;;;;;;11.67;11.67;;;;;13.89;100.00;101085.22;5035091;28;46707;-73
2022/10/10 00:11:05;;;;;;;;;13.25;12.75;;;;;13.92;100.00;101084.38;5058337;28;45498;-73
2022/10/10 00:13:31;;;;;;;;;13.67;12.33;;;;;13.96;100.00;101084.38;5036668;28;45369;-73
2022/10/10 00:15:57;;;;;;;;;12.00;12.00;;;;;13.98;100.00;101089.69;5057747;28;45408;-73
2022/10/10 00:18:22;;;;;;;;;15.00;12.33;;;;;13.97;100.00;101077.28;5057996;28;46479;-74
2022/10/10 00:20:50;;;;;;;;;14.33;14.33;;;;;13.99;100.00;101087.03;5039642;28;45428;-73
2022/10/10 00:23:15;;;;;;;;;13.33;12.67;;;;;14.02;100.00;101081.72;5039769;28;45389;-74
2022/10/10 00:25:40;;;;;;;;;15.67;12.67;;;;;14.03;100.00;101082.59;5040199;28;45449;-73
2022/10/10 00:28:06;;;;;;;;;14.33;10.33;;;;;14.05;100.00;101084.38;5056939;28;45416;-74
2022/10/10 00:30:31;;;;;;;;;12.67;11.33;;;;;14.06;100.00;101088.81;5056512;28;48174;-73
2022/10/10 00:32:58;;;;;;;;;14.00;12.00;;;;;14.07;100.00;101082.63;5057558;28;45324;-73
2022/10/10 00:35:24;;;;;;;;;13.50;11.25;;;;;14.08;100.00;101081.72;5057963;28;45316;-74
2022/10/10 00:37:49;;;;;;;;;13.33;10.00;;;;;14.05;100.00;101079.06;5039918;28;46593;-73
2022/10/10 00:40:15;;;;;;;;;12.25;10.75;;;;;14.04;100.00;101074.63;5057018;28;45294;-73
2022/10/10 00:42:40;;;;;;;;;12.75;11.75;;;;;14.08;100.00;101075.53;5057355;28;45735;-73
2022/10/10 00:45:24;;;;;;;;;16.25;13.00;;;;;14.09;100.00;101074.63;5057778;28;45299;-73
2022/10/10 00:47:53;;;;;;;;;15.67;10.67;;;;;14.07;100.00;101071.13;5057766;28;46676;-73
2022/10/10 00:50:21;;;;;;;;;11.75;11.50;;;;;14.10;100.00;101085.25;5039410;28;45271;-73
2022/10/10 00:52:46;;;;;;;;;14.00;11.00;;;;;14.08;100.00;101059.59;5039559;28;45296;-73
2022/10/10 00:55:12;;;;;;;;;13.67;12.00;;;;;14.09;100.00;101072.88;5036946;28;45737;-73
2022/10/10 00:57:38;;;;;;;;;14.25;10.50;;;;;14.08;100.00;101070.22;5057227;28;46391;-73
2022/10/10 01:00:04;;;;;;;;;10.75;10.75;;;;;14.06;100.00;101075.53;5057598;28;45315;-73
2022/10/10 01:02:30;;;;;;;;;11.33;11.33;;;;;14.03;100.00;101064.91;5057352;28;45543;-73
2022/10/10 01:04:55;;;;;;;;;12.25;11.00;;;;;14.03;100.00;101067.56;5057806;28;45490;-74
2022/10/10 01:07:25;;;;;;;;;17.00;13.50;;;;;13.99;100.00;101057.81;5057077;28;45805;-73
2022/10/10 01:09:51;;;;;;;;;15.00;11.67;;;;;13.99;100.00;101064.91;5038754;28;45533;-73
2022/10/10 01:12:25;;;;;;;;;16.00;13.50;;;;;14.00;100.00;101070.19;5039573;28;45544;-73
2022/10/10 01:15:24;;;;;;;;;15.50;12.25;;;;;13.99;100.00;101067.56;5057304;28;45459;-72
2022/10/10 01:18:01;;;;;;;;;17.00;13.25;;;;;13.97;100.00;101072.88;5025502;28;46633;-73
2022/10/10 01:20:47;;;;;;;;;14.25;13.00;;;;;13.94;100.00;101064.88;5056966;28;45467;-73
2022/10/10 01:23:50;;;;;;;;;19.25;15.00;;;;;13.95;100.00;101071.09;5051944;28;45407;-73
2022/10/10 01:26:28;;;;;;;;;22.75;16.00;;;;;13.92;100.00;101066.66;5051388;28;45376;-73
2022/10/10 01:29:11;;;;;;;;;16.50;13.25;;;;;13.88;100.00;101067.53;5038340;28;46914;-73
2022/10/10 01:31:38;;;;;;;;;17.75;17.25;;;;;13.88;100.00;101063.13;5055949;28;45333;-73
2022/10/10 01:34:08;;;;;;;;;18.50;17.50;;;;;13.86;100.00;101064.00;5034858;28;45478;-73
2022/10/10 01:36:33;;;;;;;;;24.25;18.50;;;;;13.87;100.00;101071.09;5057080;28;45254;-73
2022/10/10 01:39:07;;;;;;;;;25.50;20.75;;;;;13.84;100.00;101065.75;5056357;28;46091;-73
2022/10/10 01:41:43;;;;;;;;;10.25;9.25;;;;;13.84;100.00;101077.25;5038735;28;47125;-72
2022/10/10 01:44:09;;;;;;;;;22.00;18.75;;;;;13.79;100.00;101060.44;5056537;28;45533;-74
2022/10/10 01:46:34;;;;;;;;;24.25;20.50;;;;;13.82;100.00;101070.19;5056776;28;45510;-73
2022/10/10 01:49:01;;;;;;;;;22.50;18.75;;;;;13.79;100.00;101065.75;5055828;28;45897;-74
2022/10/10 01:51:44;;;;;;;;;21.75;20.25;;;;;13.79;100.00;101072.81;5056735;28;45513;-73
2022/10/10 01:54:41;;;;;;;;;19.75;15.50;;;;;13.78;100.00;101063.97;5054067;28;45512;-73
2022/10/10 01:57:30;;;;;;;;;17.75;16.75;;;;;13.76;100.00;101057.81;5038441;28;45258;-73
2022/10/10 02:00:04;;;;;;;;;22.75;20.50;;;;;13.77;100.00;101071.94;5038394;28;45476;-73
2022/10/10 02:02:48;;;;;;;;;21.25;16.00;;;;;13.75;100.00;101061.34;5055939;28;45755;-73
2022/10/10 02:05:24;;;;;;;;;22.25;18.75;;;;;13.76;100.00;101056.91;5056138;28;45212;-73
2022/10/10 02:08:03;;;;;;;;;19.50;19.00;;;;;13.72;100.00;101055.13;5043566;28;45405;-73
2022/10/10 02:10:32;;;;;;;;;17.00;17.00;;;;;13.73;100.00;101059.56;5037834;28;46894;-73
2022/10/10 02:12:59;;;;;;;;;20.50;17.00;;;;;13.74;100.00;101063.97;5056382;28;45245;-73
2022/10/10 02:15:28;;;;;;;;;23.50;20.50;;;;;13.71;100.00;101053.38;5056061;28;45177;-73
2022/10/10 02:17:55;;;;;;;;;17.25;17.00;;;;;13.70;100.00;101054.25;5038118;28;45298;-73
2022/10/10 02:20:24;;;;;;;;;21.00;15.25;;;;;13.71;100.00;101056.91;5055259;28;45957;-73
2022/10/10 02:22:50;;;;;;;;;16.00;14.00;;;;;13.68;100.00;101050.69;5056047;28;45518;-73
2022/10/10 02:25:16;;;;;;;;;21.50;15.00;;;;;13.69;100.00;101057.78;5056017;28;45462;-73
2022/10/10 02:27:47;;;;;;;;;23.50;19.50;;;;;13.69;100.00;101060.41;5038139;28;45407;-73
2022/10/10 02:30:14;;;;;;;;;21.50;15.00;;;;;13.69;100.00;101052.47;5056063;28;45835;-72
2022/10/10 02:32:48;;;;;;;;;16.25;16.00;;;;;13.70;100.00;101047.19;5017671;28;45470;-73
2022/10/10 02:35:21;;;;;;;;;15.75;14.75;;;;;13.71;100.00;101051.59;5038106;28;45507;-73
2022/10/10 02:37:47;;;;;;;;;17.50;15.00;;;;;13.72;100.00;101047.19;5038949;28;45359;-73
2022/10/10 02:40:16;;;;;;;;;20.75;19.50;;;;;13.73;100.00;101048.94;5037691;28;46494;-73
2022/10/10 02:42:42;;;;;;;;;15.75;15.75;;;;;13.75;100.00;101052.50;5037781;28;45326;-74
2022/10/10 02:45:07;;;;;;;;;17.25;15.50;;;;;13.80;100.00;101053.41;5037646;28;45506;-74
2022/10/10 02:47:33;;;;;;;;;16.75;15.25;;;;;13.82;100.00;101055.16;5037369;28;45549;-73
2022/10/10 02:49:58;;;;;;;;;20.00;15.75;;;;;13.83;100.00;101064.00;5055449;28;45921;-73
2022/10/10 02:52:24;;;;;;;;;15.25;14.25;;;;;13.82;100.00;101052.50;5037803;28;45329;-73
2022/10/10 02:54:49;;;;;;;;;18.75;14.50;;;;;13.83;100.00;101054.25;5059107;28;45434;-73
2022/10/10 02:57:14;;;;;;;;;21.00;16.25;;;;;13.81;100.00;101045.44;5041443;28;45495;-73
2022/10/10 02:59:40;;;;;;;;;18.50;16.50;;;;;13.79;100.00;101052.47;5040422;28;51682;-73
2022/10/10 03:02:06;;;;;;;;;20.75;16.25;;;;;13.79;100.00;101052.47;5040452;28;51127;-73
2022/10/10 03:04:31;;;;;;;;;14.75;14.25;;;;;13.82;100.00;101054.28;5040774;28;45284;-73
2022/10/10 03:06:57;;;;;;;;;16.00;14.75;;;;;13.82;100.00;101059.56;5058646;28;45565;-73
2022/10/10 03:09:22;;;;;;;;;14.75;12.50;;;;;13.80;100.00;101054.28;5039336;28;45742;-73
2022/10/10 03:11:47;;;;;;;;;18.00;15.50;;;;;13.81;100.00;101048.06;5059052;28;49792;-73
2022/10/10 03:14:13;;;;;;;;;14.75;13.25;;;;;13.80;100.00;101048.97;5058883;28;45487;-73
2022/10/10 03:16:38;;;;;;;;;12.33;12.33;;;;;13.84;100.00;101056.03;5058827;28;45601;-73
2022/10/10 03:19:07;;;;;;;;;19.25;15.00;;;;;13.85;100.00;101052.50;5058666;28;45746;-73
2022/10/10 03:21:33;;;;;;;;;16.33;13.00;;;;;13.89;100.00;101058.69;5041445;28;45494;-73
2022/10/10 03:23:58;;;;;;;;;12.75;12.00;;;;;13.90;100.00;101047.19;5040319;28;45286;-73
2022/10/10 03:26:23;;;;;;;;;17.67;13.67;;;;;13.91;100.00;101054.28;5058887;28;45539;-73
2022/10/10 03:28:49;;;;;;;;;14.00;14.00;;;;;13.93;100.00;101051.63;5058836;28;45352;-74
2022/10/10 03:31:14;;;;;;;;;14.67;14.67;;;;;13.93;100.00;101057.81;5058119;28;45383;-73
2022/10/10 03:33:40;;;;;;;;;14.75;12.75;;;;;13.94;100.00;101053.38;5058661;28;45290;-73
2022/10/10 03:36:05;;;;;;;;;15.00;14.00;;;;;13.96;100.00;101049.00;5058468;28;45464;-73
2022/10/10 03:38:31;;;;;;;;;16.75;12.75;;;;;13.94;100.00;101046.31;5058482;28;45558;-72
2022/10/10 03:40:56;;;;;;;;;12.50;12.50;;;;;13.95;100.00;101049.84;5058999;28;45296;-73
2022/10/10 03:43:21;;;;;;;;;14.00;14.00;;;;;13.96;100.00;101049.00;5040387;28;45367;-74
2022/10/10 03:45:47;;;;;;;;;15.00;13.67;;;;;13.92;100.00;101042.78;5058252;28;46397;-73
2022/10/10 03:48:13;;;;;;;;;14.67;12.67;;;;;13.93;100.00;101044.53;5058377;28;46103;-73
2022/10/10 03:50:38;;;;;;;;;17.33;11.00;;;;;13.94;100.00;101051.63;5057510;28;45380;-73
2022/10/10 03:53:04;;;;;;;;;19.33;13.00;;;;;13.95;100.00;101052.50;5058832;28;45415;-73
2022/10/10 03:55:30;;;;;;;;;13.67;12.33;;;;;13.97;100.00;101042.78;5040228;28;45593;-73
2022/10/10 03:57:55;;;;;;;;;12.00;12.00;;;;;13.97;100.00;101045.44;5058139;28;46874;-73
2022/10/10 04:00:21;;;;;;;;;23.00;13.25;;;;;14.01;100.00;101058.72;5058065;28;45751;-73
2022/10/10 04:02:46;;;;;;;;;12.67;11.67;;;;;14.06;100.00;101058.69;5057885;28;45499;-73
2022/10/10 04:05:11;;;;;;;;;14.00;11.33;;;;;14.11;100.00;101054.28;5058266;28;45419;-73
2022/10/10 04:07:37;;;;;;;;;16.00;13.00;;;;;14.10;100.00;101047.19;5040109;28;46355;-73
2022/10/10 04:10:03;;;;;;;;;13.00;13.00;;;;;14.13;100.00;101041.91;5057812;28;45495;-73
2022/10/10 04:12:28;;;;;;;;;13.33;12.00;;;;;14.17;100.00;101041.03;5058235;28;45291;-73
2022/10/10 04:14:54;;;;;;;;;12.33;10.33;;;;;14.20;100.00;101045.44;5058198;28;45629;-73
2022/10/10 04:17:19;;;;;;;;;12.67;10.33;;;;;14.25;100.00;101038.34;5022528;28;48266;-73
2022/10/10 04:19:45;;;;;;;;;14.00;12.33;;;;;14.27;100.00;101036.56;5058053;28;45262;-73
2022/10/10 04:22:10;;;;;;;;;11.67;11.67;;;;;14.25;100.00;101028.59;5040120;28;45538;-73
2022/10/10 04:24:35;;;;;;;;;17.00;9.67;;;;;14.26;100.00;101033.03;5058285;28;45348;-73
2022/10/10 04:27:02;;;;;;;;;16.00;13.00;;;;;14.22;100.00;101033.94;5056933;28;46701;-73
2022/10/10 04:29:28;;;;;;;;;13.00;11.67;;;;;14.19;100.00;101033.94;5058172;28;45304;-73
2022/10/10 04:31:53;;;;;;;;;15.67;14.33;;;;;14.17;100.00;101038.38;5056877;28;45591;-73
2022/10/10 04:34:19;;;;;;;;;14.00;10.00;;;;;14.13;100.00;101037.47;5056409;28;45265;-73
2022/10/10 04:36:44;;;;;;;;;10.67;10.67;;;;;14.13;100.00;101037.47;5057381;28;45676;-73
2022/10/10 04:39:09;;;;;;;;;12.33;12.33;;;;;14.11;100.00;101039.25;5057088;28;45276;-73
2022/10/10 04:41:35;;;;;;;;;12.67;11.33;;;;;14.11;100.00;101047.22;5058004;28;45301;-73
2022/10/10 04:44:00;;;;;;;;;16.00;11.00;;;;;14.11;100.00;101041.00;5039664;28;45526;-73
2022/10/10 04:46:25;;;;;;;;;16.67;12.67;;;;;14.11;100.00;101047.22;5057343;28;45916;-73
2022/10/10 04:48:51;;;;;;;;;10.67;9.00;;;;;14.13;100.00;101042.78;5057289;28;48413;-73
2022/10/10 04:51:17;;;;;;;;;12.33;9.33;;;;;14.18;100.00;101056.06;5057740;28;45284;-73
2022/10/10 04:53:42;;;;;;;;;13.00;11.67;;;;;14.21;100.00;101049.84;5057675;28;45657;-73
2022/10/10 04:56:08;;;;;;;;;12.33;10.00;;;;;14.24;100.00;101056.06;5056983;28;50072;-73
2022/10/10 04:58:33;;;;;;;;;8.33;7.00;;;;;14.26;100.00;101042.78;5056702;28;50626;-73
2022/10/10 05:00:59;;;;;;;;;8.33;8.33;;;;;14.32;100.00;101046.28;5039311;28;45629;-72
2022/10/10 05:03:24;;;;;;;;;11.00;9.67;;;;;14.37;100.00;101046.28;5038174;28;45469;-73
2022/10/10 05:05:51;;;;;;;;;15.00;10.33;;;;;14.40;100.00;101031.25;5039034;28;46323;-73
2022/10/10 05:08:17;;;;;;;;;13.00;10.33;;;;;14.42;100.00;101033.88;5056319;28;45559;-73
2022/10/10 05:10:44;;;;;;;;;9.67;8.33;;;;;14.43;100.00;101035.66;5056942;28;45748;-73
2022/10/10 05:13:13;;;;;;;;;10.00;8.00;;;;;14.42;100.00;101028.56;5057246;28;45478;-73
2022/10/10 05:15:40;;;;;;;;;10.33;9.00;;;;;14.40;100.00;101052.50;5056175;28;45715;-73
2022/10/10 05:18:05;;;;;;;;;15.67;10.00;;;;;14.37;100.00;101035.66;5056282;28;45312;-73
2022/10/10 05:20:32;;;;;;;;;14.00;11.33;;;;;14.35;100.00;101038.34;5056956;28;45445;-73
2022/10/10 05:22:57;;;;;;;;;14.00;10.00;;;;;14.35;100.00;101046.31;5038747;28;45292;-73
2022/10/10 05:25:23;;;;;;;;;12.00;11.00;;;;;14.32;100.00;101050.72;5052269;28;45716;-72
2022/10/10 05:27:48;;;;;;;;;11.00;9.33;;;;;14.29;100.00;101040.13;5054715;28;45316;-72
2022/10/10 05:30:14;;;;;;;;;12.67;9.33;;;;;14.28;100.00;101041.00;5038855;28;45887;-73
2022/10/10 05:32:39;;;;;;;;;11.67;10.33;;;;;14.28;100.00;101038.38;5056864;28;45501;-73
2022/10/10 05:35:06;;;;;;;;;8.00;6.67;;;;;14.26;100.00;101035.69;5056785;28;45403;-73
2022/10/10 05:37:32;;;;;;;;;13.00;10.00;;;;;14.22;100.00;101047.22;5055720;28;45447;-72
2022/10/10 05:39:57;;;;;;;;;13.33;10.00;;;;;14.21;100.00;101045.41;5055120;28;45458;-73
2022/10/10 05:42:22;;;;;;;;;13.33;8.67;;;;;14.16;100.00;101026.81;5056923;28;45477;-73
2022/10/10 05:44:48;;;;;;;;;10.00;8.33;;;;;14.18;100.00;101040.13;5047956;28;46530;-73
2022/10/10 05:47:14;;;;;;;;;8.00;8.00;;;;;14.12;100.00;101025.09;5056642;28;45334;-72
2022/10/10 05:49:39;;;;;;;;;12.67;9.00;;;;;14.12;100.00;101025.09;5056356;28;45374;-73
2022/10/10 05:52:04;;;;;;;;;11.00;9.00;;;;;14.13;100.00;101021.53;5056339;28;45295;-73
2022/10/10 05:54:30;;;;;;;;;10.67;8.67;;;;;14.13;100.00;101029.50;5055718;28;45824;-74
2022/10/10 05:56:55;;;;;;;;;7.50;7.50;;;;;14.13;100.00;101025.97;5055504;28;49045;-73
2022/10/10 05:59:21;;;;;;;;;9.67;7.33;;;;;14.14;100.00;101025.97;5038343;28;45672;-73
2022/10/10 06:01:46;;;;;;;;;12.67;11.00;;;;;14.11;100.00;101015.34;5035738;28;45716;-73
2022/10/10 06:04:11;;;;;;;;;7.00;7.00;;;;;14.16;100.00;101023.28;5056013;28;45809;-73
2022/10/10 06:06:37;;;;;;;;;12.33;9.00;;;;;14.15;100.00;101018.88;5055607;28;45469;-73
2022/10/10 06:09:02;;;;;;;;;13.00;8.00;;;;;14.20;100.00;101034.81;5038331;28;45907;-73
2022/10/10 06:11:28;;;;;;;;;10.00;6.33;;;;;14.19;100.00;101028.63;5159767;22;46200;-73
2022/10/10 06:13:54;;;;;;;;;14.67;7.67;;;;;14.21;100.00;101033.91;5006562;28;46668;-73
2022/10/10 06:16:20;;;;;;;;;14.00;7.33;;;;;14.25;100.00;101044.53;5007646;28;45535;-72
2022/10/10 06:18:46;;;;;;;;;15.33;11.00;;;;;14.25;100.00;101041.00;5006605;28;45470;-73
2022/10/10 06:21:11;;;;;;;;;12.33;10.33;;;;;14.30;100.00;101047.19;5010667;28;45552;-72
2022/10/10 06:23:37;;;;;;;;;8.33;8.00;;;;;14.32;100.00;101040.09;5005592;28;47532;-71
2022/10/10 06:26:03;;;;;;;;;10.33;10.33;;;;;14.34;100.00;101048.97;5010726;28;45383;-74
2022/10/10 06:28:28;;;;;;;;;14.00;13.00;;;;;14.37;100.00;101054.25;5013119;28;45456;-75
2022/10/10 06:30:58;;;;;;;;;13.67;11.67;;;;;14.39;100.00;101061.38;5011481;28;45467;-74
2022/10/10 06:33:23;;;;;;;;;10.33;10.33;;;;;14.41;100.00;101061.34;5013104;28;46458;-74
2022/10/10 06:35:49;;;;;;;;;12.00;9.00;;;;;14.44;100.00;101064.03;5005671;28;46783;-75
2022/10/10 06:38:15;;;;;;;;;12.00;8.67;;;;;14.46;100.00;101062.22;5011456;28;45370;-74
2022/10/10 06:40:41;;;;;;;;;7.33;7.00;;;;;14.47;100.00;101063.13;5009687;28;45553;-74
2022/10/10 06:43:10;;;;;;;;;8.33;8.33;;;;;14.48;100.00;101060.47;5005499;28;45524;-73
2022/10/10 06:45:36;;;;;;;;;8.00;7.00;;;;;14.54;100.00;101070.22;5008023;28;45506;-73
2022/10/10 06:48:02;;;;;;;;;7.00;7.00;;;;;14.56;100.00;101063.16;5009039;28;45435;-75
2022/10/10 06:50:27;;;;;;;;;12.00;9.00;;;;;14.59;100.00;101060.47;5012078;28;45411;-74
2022/10/10 06:52:53;;;;;;;;;10.67;9.33;;;;;14.61;100.00;101059.59;5004599;28;51646;-74
2022/10/10 06:55:18;;;;;;;;;11.00;11.00;;;;;14.68;100.00;101071.09;5014078;28;45229;-75
2022/10/10 06:57:43;;;;;;;;;8.67;8.67;;;;;14.78;100.00;101075.50;5008597;28;45408;-73
2022/10/10 07:00:09;;;;;;;;;10.67;8.00;;;;;14.87;100.00;101079.91;5008204;28;45529;-75
2022/10/10 07:02:39;;;;;;;;;9.33;8.00;;;;;14.98;100.00;101085.19;5010653;28;46471;-74
2022/10/10 07:05:11;;;;;;;;;10.67;9.33;;;;;15.06;100.00;101100.22;5006585;28;45594;-73
2022/10/10 07:07:39;;;;;;;;;8.67;6.67;;;;;15.14;100.00;101095.78;5010199;28;45456;-72
2022/10/10 07:10:06;;;;;;;;;12.67;10.00;;;;;15.22;100.00;101114.34;5013929;28;45410;-72
2022/10/10 07:12:31;;;;;;;;;12.33;9.67;;;;;15.28;100.00;101113.44;5011673;28;46805;-75
2022/10/10 07:14:57;;;;;;;;;12.67;10.00;;;;;15.30;100.00;101106.38;4996696;28;45349;-73
2022/10/10 07:17:22;;;;;;;;;9.33;7.67;;;;;15.36;100.00;101114.31;5014406;28;45555;-73
2022/10/10 07:19:47;;;;;;;;;16.00;8.00;;;;;15.38;100.00;101109.88;5012670;28;45561;-72
2022/10/10 07:22:13;;;;;;;;;8.00;8.00;;;;;15.39;100.00;101107.22;5013898;28;51996;-73
2022/10/10 07:24:38;;;;;;;;;11.00;9.00;;;;;15.42;100.00;101108.97;5008721;28;45518;-71
2022/10/10 07:27:04;;;;;;;;;11.33;9.00;;;;;15.47;100.00;101101.84;5009864;28;45949;-70
2022/10/10 07:29:29;;;;;;;;;11.00;9.00;;;;;15.54;100.00;101110.69;5009905;28;45340;-69
2022/10/10 07:31:56;;;;;;;;;9.67;9.00;;;;;15.58;100.00;101115.97;5008724;28;45527;-71
2022/10/10 07:34:21;;;;;;;;;17.00;11.00;;;;;15.62;100.00;101109.75;5008875;28;45405;-70
2022/10/10 07:36:49;;;;;;;;;7.00;7.00;;;;;15.69;100.00;101116.84;5002201;28;45317;-70
2022/10/10 07:39:21;;;;;;;;;11.67;9.67;;;;;15.72;100.00;101105.31;5006851;28;45679;-70
2022/10/10 07:41:46;;;;;;;;;9.00;9.00;;;;;15.80;100.00;101105.25;5015438;28;47259;-70
2022/10/10 07:44:12;;;;;;;;;10.00;10.00;;;;;15.81;100.00;101113.22;5010890;28;46621;-70
2022/10/10 07:46:37;;;;;;;;;13.67;10.00;;;;;15.87;100.00;101114.97;5013391;28;46015;-70
2022/10/10 07:49:03;;;;;;;;;11.00;10.00;;;;;15.90;100.00;101121.16;5010563;28;47050;-71
2022/10/10 07:51:28;;;;;;;;;9.67;9.67;;;;;15.91;100.00;101114.94;5011759;28;46815;-70
2022/10/10 07:53:53;;;;;;;;;11.67;9.00;;;;;15.96;100.00;101122.91;5012584;28;45470;-70
2022/10/10 07:56:19;;;;;;;;;13.33;12.33;;;;;15.97;100.00;101124.66;5013334;28;49078;-70
2022/10/10 07:58:45;;;;;;;;;14.00;12.00;;;;;16.01;100.00;101125.53;5011679;28;45486;-71
2022/10/10 08:01:11;;;;;;;;;9.33;8.67;;;;;16.03;100.00;101124.63;5008498;28;46293;-74
2022/10/10 08:03:37;;;;;;;;;8.33;8.33;;;;;16.06;100.00;101126.41;5009275;28;45362;-71
2022/10/10 08:06:04;;;;;;;;;11.33;11.33;;;;;16.03;100.00;101116.63;5010606;28;45488;-70
2022/10/10 08:08:30;;;;;;;;;9.67;9.67;;;;;16.05;100.00;101114.84;5008187;28;45502;-71
2022/10/10 08:10:56;;;;;;;;;9.67;9.00;;;;;16.05;100.00;101121.97;5011845;28;46287;-71
2022/10/10 08:13:22;;;;;;;;;15.33;12.00;;;;;16.07;100.00;101126.38;5011002;28;45862;-72
2022/10/10 08:15:50;;;;;;;;;17.67;9.67;;;;;16.04;100.00;101128.19;5010069;28;45517;-73
2022/10/10 08:18:15;;;;;;;;;11.33;7.00;;;;;16.07;100.00;101137.03;5011990;28;45538;-70
2022/10/10 08:20:41;;;;;;;;;14.33;12.00;;;;;16.11;100.00;101137.91;5011781;28;47059;-70
2022/10/10 08:23:06;;;;;;;;;10.67;9.00;;;;;16.11;100.00;101141.44;5009271;28;45513;-70
2022/10/10 08:25:32;;;;;;;;;11.67;11.33;;;;;16.13;100.00;101136.97;5011502;28;47176;-72
2022/10/10 08:27:57;;;;;;;;;8.67;8.67;;;;;16.15;100.00;101139.66;5010800;28;45581;-71
2022/10/10 08:30:22;;;;;;;;;12.00;11.00;;;;;16.21;100.00;101147.59;5014087;28;45610;-72
2022/10/10 08:32:48;;;;;;;;;12.67;10.67;;;;;16.22;100.00;101160.91;5009285;28;45451;-71
2022/10/10 08:35:13;;;;;;;;;11.33;9.67;;;;;16.21;100.00;101161.81;5003982;28;45414;-69
2022/10/10 08:37:39;;;;;;;;;11.67;10.00;;;;;16.20;100.00;101162.72;5011210;28;45580;-69
2022/10/10 08:40:05;;;;;;;;;13.00;10.00;;;;;16.18;100.00;101168.94;5004869;28;45745;-71
2022/10/10 08:42:36;;;;;;;;;13.33;9.00;;;;;16.18;100.00;101183.13;5010812;28;45538;-70
2022/10/10 08:45:04;;;;;;;;;8.00;8.00;;;;;16.15;100.00;101168.97;5010136;28;45487;-72
2022/10/10 08:47:37;;;;;;;;;9.67;8.67;;;;;16.14;100.00;101181.41;5008375;28;46966;-72
2022/10/10 08:50:09;;;;;;;;;10.00;10.00;;;;;16.16;100.00;101182.25;5008503;28;46687;-71
2022/10/10 08:53:20;;;;;;;;;13.67;10.00;;;;;16.15;100.00;101174.28;5006421;28;47338;-72
2022/10/10 08:55:46;;;;;;;;;10.67;8.33;;;;;16.21;100.00;101176.91;4972892;28;45389;-71
2022/10/10 08:58:17;;;;;;;;;9.00;7.00;;;;;16.28;100.00;101177.75;4999532;28;45534;-70
2022/10/10 09:00:48;;;;;;;;;10.67;7.67;;;;;16.32;100.00;101177.72;5010265;28;45998;-71
2022/10/10 09:03:18;;;;;;;;;10.67;7.67;;;;;16.38;100.00;101179.44;5006576;28;45131;-70
2022/10/10 09:06:18;;;;;;;;;10.00;7.67;;;;;16.47;100.00;101179.41;5009075;28;45416;-71
2022/10/10 09:09:21;;;;;;;;;8.00;7.00;;;;;16.57;100.00;101188.22;4999504;28;45467;-71
2022/10/10 09:11:52;;;;;;;;;8.00;6.33;;;;;16.67;100.00;101195.22;5009650;28;45549;-71
2022/10/10 09:14:30;;;;;;;;;11.00;7.33;;;;;16.76;100.00;101192.50;5011075;28;45798;-71
2022/10/10 09:17:04;;;;;;;;;7.67;6.00;;;;;16.84;100.00;101196.00;5011712;28;45633;-71
2022/10/10 09:19:49;;;;;;;;;7.00;6.00;;;;;16.97;100.00;101192.31;5031487;28;45516;-71
2022/10/10 09:22:18;;;;;;;;;14.33;7.00;;;;;17.06;100.00;101188.69;5013578;28;46378;-71
2022/10/10 09:25:02;;;;;;;;;8.33;8.00;;;;;17.21;100.00;101196.53;5027010;28;46136;-71
2022/10/10 09:27:39;;;;;;;;;13.00;7.33;;;;;17.35;100.00;101195.50;5027954;28;45462;-71
2022/10/10 09:30:13;;;;;;;;;13.67;7.67;;;;;17.46;100.00;101196.25;5011051;28;45336;-71
2022/10/10 09:32:43;;;;;;;;;8.67;6.67;;;;;17.57;100.00;101190.78;5012673;28;46429;-72
2022/10/10 09:35:15;;;;;;;;;11.00;8.00;;;;;17.61;100.00;101185.38;4989162;28;46056;-73
2022/10/10 09:37:42;;;;;;;;;9.67;9.00;;;;;17.70;100.00;101195.97;5026205;28;45561;-71
2022/10/10 09:40:27;;;;;;;;;9.67;8.00;;;;;17.78;100.00;101215.47;5005486;28;45514;-71
2022/10/10 09:42:54;;;;;;;;;7.33;7.33;;;;;17.85;100.00;101218.97;5015202;28;47440;-72
2022/10/10 09:45:27;;;;;;;;;9.67;8.00;;;;;17.93;100.00;101221.53;5010054;28;45570;-73
2022/10/10 09:47:54;;;;;;;;;8.67;8.33;;;;;18.01;100.00;101222.31;5010602;28;45495;-72
2022/10/10 09:50:20;;;;;;;;;8.33;7.33;;;;;18.10;100.00;101231.97;5000748;28;45515;-72
2022/10/10 09:52:47;;;;;;;;;9.00;8.67;;;;;18.14;100.00;101225.69;5011452;28;47846;-71
2022/10/10 09:55:41;;;;;;;;;11.33;7.00;;;;;18.20;100.00;101236.31;5012143;28;45614;-72
2022/10/10 09:58:22;;;;;;;;;9.00;7.33;;;;;18.22;100.00;101237.19;4998426;28;45588;-73
2022/10/10 10:00:47;;;;;;;;;12.00;8.00;;;;;18.25;100.00;101231.78;5014633;28;45480;-73
2022/10/10 10:03:16;;;;;;;;;12.33;7.67;;;;;18.26;100.00;101231.75;5004585;28;45809;-73
2022/10/10 10:05:53;;;;;;;;;8.00;8.00;;;;;18.32;100.00;101241.47;5013367;28;45244;-72
2022/10/10 10:08:32;;;;;;;;;12.33;8.00;;;;;18.36;100.00;101242.31;5015914;28;45374;-73
2022/10/10 10:10:58;;;;;;;;;8.00;8.00;;;;;18.43;100.00;101241.31;5031658;28;45473;-74
2022/10/10 10:13:35;;;;;;;;;11.67;9.00;;;;;18.51;100.00;101252.78;5015813;28;45949;-75
2022/10/10 10:16:10;;;;;;;;;11.33;8.00;;;;;18.60;100.00;101263.34;5003200;28;45354;-74
2022/10/10 10:18:41;;;;;;;;;8.33;8.00;;;;;18.65;100.00;101256.16;5009203;28;45319;-74
2022/10/10 10:21:07;;;;;;;;;11.00;8.00;;;;;18.71;100.00;101261.44;5014343;28;45499;-73
2022/10/10 10:23:35;;;;;;;;;8.67;6.67;;;;;18.72;100.00;101256.97;5007625;28;45973;-73
2022/10/10 10:26:05;;;;;;;;;7.33;7.00;;;;;18.77;100.00;101268.47;5008910;28;45456;-74
2022/10/10 10:28:38;;;;;;;;;9.33;7.00;;;;;18.78;100.00;101257.75;5007317;28;45436;-75
2022/10/10 10:31:04;;;;;;;;;8.00;6.00;;;;;18.83;100.00;101263.91;5006921;28;45577;-73
2022/10/10 10:34:12;;;;;;;;;8.67;7.00;;;;;18.85;100.00;101250.50;5026815;28;46390;-73
2022/10/10 10:36:49;;;;;;;;;6.67;5.67;;;;;18.90;100.00;101266.47;5007488;28;45214;-72
2022/10/10 10:39:40;;;;;;;;;9.00;7.33;;;;;18.92;100.00;101270.91;5028874;28;45456;-73
2022/10/10 10:42:21;;;;;;;;;6.67;6.67;;;;;18.94;100.00;101268.19;5010954;28;45594;-73
2022/10/10 10:44:55;;;;;;;;;8.00;7.67;;;;;18.92;100.00;101280.72;5009934;28;46575;-76
2022/10/10 10:47:23;;;;;;;;;8.00;7.33;;;;;18.93;100.00;101286.03;5008878;28;45559;-75
2022/10/10 10:50:26;;;;;;;;;9.00;8.33;;;;;18.93;100.00;101287.84;5008613;28;45447;-75
2022/10/10 10:52:52;;;;;;;;;8.33;7.33;;;;;18.96;100.00;101290.44;4992867;28;45563;-75
2022/10/10 10:55:28;;;;;;;;;11.33;8.67;;;;;18.98;100.00;101285.97;5003643;28;46898;-74
2022/10/10 10:58:00;;;;;;;;;10.67;6.67;;;;;18.97;100.00;101298.47;5010098;28;45479;-75
2022/10/10 11:00:28;;;;;;;;;8.33;7.00;;;;;18.97;100.00;101306.50;5006971;28;45526;-74
2022/10/10 11:02:59;;;;;;;;;7.67;6.33;;;;;19.01;100.00;101305.53;5004951;28;54305;-75
2022/10/10 11:05:33;;;;;;;;;12.33;8.00;;;;;19.06;100.00;101308.13;5012300;28;46710;-75
2022/10/10 11:08:34;;;;;;;;;7.00;7.00;;;;;19.15;100.00;101309.78;5013043;28;45459;-74
2022/10/10 11:11:18;;;;;;;;;11.00;7.33;;;;;19.21;100.00;101320.38;5005780;28;45511;-74
2022/10/10 11:14:33;;;;;;;;;8.00;7.67;;;;;19.29;100.00;101319.34;5009759;28;45289;-75
2022/10/10 11:17:42;;;;;;;;;10.33;10.33;;;;;19.40;100.00;101327.19;4962567;28;48644;-75